Pagrindinis puslapis
METAR-TAF:

METAR-TAF

Oro uostai :

Sankt Peterburgas, Rusija

platuma: 59-58N, ilguma: 030-18E, Aukštis: 4 m

Dabartinis oras

Ataskaita buvo paskelbta 48 minutes, ne 23:30 UTC
Ramus vėjas
Temperatūra 21°C
Drėgmė 69%
Slėgis 1017 hPa
Matomumas 10 km arba daugiau
nėra debesų žemiau 1500 m ir nėra kamuolinių lietaus debesų

METAR: ULLI 022330Z 00000MPS CAVOK 21/15 Q1017 R10R/090060 NOSIG

Laikas: 03:18 (00:18 UTC)

Prognozė

Ataskaita buvo paskelbta 1 valandą ir 22 minutes, ne 22:56 UTC
Prognozė galioja nuo 03 metu 00 UTC su 03 metu 24 UTC
Vėjas 6 kt iš Pietų
Matomumas 10 km arba daugiau
Išsisklaidę debesys ne aukštis 3000 ft
Tapsmas
nuo 03 metu 07 UTC su 03 metu 09 UTC
Su prošvaistėmis ne aukštis 2000 ft
Laikinai
nuo 03 metu 09 UTC su 03 metu 18 UTC
Vėjas 12 kt iš Pietų su gūsio iki 21 kt
Su prošvaistėmis ne aukštis 2000 ft, Liūtiniai kamuoliniai debesys.
perkūnija, lietus

TAF: ULLI 022256Z 0300/0324 18003MPS 9999 SCT030 BECMG 0307/0309 BKN020 TEMPO 0309/0318 17006G11MPS -TSRA BKN020CB

Orai ataskaitas ir orų prognozės (METAR, TAF).

turimą stotys yra geltonos ir raudonos taškus žemėlapyje.

Perkelti pele per norėdami pamatyti stoties vardą.

Tada spustelėkite, norėdami matyti oro stebėjimo ir prognozės.

Norėdami pakeisti žemėlapį: spustelėkite ant žalios mygtukų su juodo kryžiaus žemyn,; žalią mygtuką su brūkšneliu, jei norite nutolinti; arba žalių rodyklių gretimoms žemėlapius.


METAR-TAF: